Aérodrome :
LOGIN :

S'inscrire | Disclaimer

   EN    FR    IT 

 










Légende :    VFR   VFR Marginal   IFR   IFR Intensif   IFR Très Intensif
Visi : 
Plafond : 
>= 8 km
>= 3000ft
5 à 8 km
1000 à 3000 ft
1500m à 5 km
500 à 1000 ft
800 à 1500m
200 à 500 ft
< 800m
< 200 ft
Symboles :   Orages  Brouillard  Fortes neiges  Fortes précipitations  Vent > 20 kt
SIGMETs :   Divers  Orages  Givrage  Turbulence  Onde Orograph.  Cendres Volcan.






- Altitude de l'aérodrome : 177 ft
- Code IATA : BRI


LIBD - Palese Macchie Bari

DERNIER METAR :
  • 310750Z 29008KT 260V340 9999 SCT035 17/13 Q1015

METARs EXPIRÉS :
  • 310720Z 28006KT 250V310 9999 SCT035 16/13 Q1015
  • 310650Z 27006KT 240V300 9999 SCT035 15/13 Q1015
  • 310620Z 26007KT 240V300 9999 FEW015 SCT035 15/13 Q1015
  • 310550Z 25006KT 9999 FEW015 SCT035 14/13 Q1015
  • 310520Z 26006KT 9999 -RA FEW015TCU SCT035 13/13 Q1015 RERA

TAF TAF LIBD
Valide du 31 à 06h jusqu'au 01 à 06h UTC


310500Z 3106/0106 30008KT 9999 SCT030
TEMPO 3106/3112 RA
BECMG 3107/3109 01013KT
BECMG 3119/3121 28008KT



MET'MAP, la Météo Aéronautique d'un coup d'oeil ! - Copyright ORBIFLY Décembre 2007 - Disclaimer

ORBIFLY MET'MAP TEAM :

Programmation & Développement : Alexandra Zaïnal
Sur une idée originale de : Baudouin d'Aumeries
Assistance à la programmation : Marc-Olivier Méhu
Soutien technique & logistique : Manuel Goepfert

Contact : metmap@orbifly.com




SOURCES & CREDITS :

   NOAA